createdAt,value
2019-05-18T00:00:10.044Z,97.22
2019-05-18T00:01:09.999Z,97.12
2019-05-18T00:02:09.990Z,97.02
2019-05-18T00:03:09.979Z,97.33
2019-05-18T00:04:09.967Z,97.12
2019-05-18T00:05:09.990Z,97.02
2019-05-18T00:06:09.952Z,97.02
2019-05-18T00:07:09.933Z,97.02
2019-05-18T00:08:09.922Z,97.33
2019-05-18T00:09:09.912Z,97.12
2019-05-18T00:10:09.900Z,96.81
2019-05-18T00:11:09.942Z,97.22
2019-05-18T00:12:09.889Z,97.33
2019-05-18T00:13:09.868Z,97.02
2019-05-18T00:14:09.856Z,96.81
2019-05-18T00:15:09.845Z,97.02
2019-05-18T00:16:09.837Z,97.02
2019-05-18T00:17:24.498Z,97.27
2019-05-18T00:18:10.837Z,97.37
2019-05-18T00:19:09.804Z,97.37
2019-05-18T00:20:09.790Z,97.47
2019-05-18T00:21:09.782Z,97.47
2019-05-18T00:22:09.769Z,97.78
2019-05-18T00:23:09.790Z,97.57
2019-05-18T00:24:09.761Z,97.27
2019-05-18T00:25:09.743Z,97.00
2019-05-18T00:26:09.724Z,97.16
2019-05-18T00:27:09.719Z,96.96
2019-05-18T00:28:09.703Z,97.00
2019-05-18T00:29:09.742Z,96.96
2019-05-18T00:30:09.701Z,97.11
2019-05-18T00:31:09.671Z,97.00
2019-05-18T00:32:09.669Z,97.11
2019-05-18T00:33:09.649Z,97.00
2019-05-18T00:34:09.641Z,97.11
2019-05-18T00:35:09.667Z,97.21
2019-05-18T00:36:09.636Z,97.11
2019-05-18T00:37:09.607Z,97.31
2019-05-18T00:38:09.597Z,96.70
2019-05-18T00:39:09.583Z,96.80
2019-05-18T00:40:09.573Z,97.15
2019-05-18T00:41:09.638Z,97.11
2019-05-18T00:42:09.574Z,97.36
2019-05-18T00:43:09.541Z,96.80
2019-05-18T00:44:09.530Z,96.84
2019-05-18T00:45:09.517Z,96.64
2019-05-18T00:46:09.505Z,97.15
2019-05-18T00:47:09.546Z,96.74
2019-05-18T00:48:09.498Z,96.95
2019-05-18T00:49:09.477Z,96.74
2019-05-18T00:50:09.463Z,96.84
2019-05-18T00:51:09.456Z,96.64
2019-05-18T00:52:09.446Z,96.95
2019-05-18T00:53:09.694Z,96.95
2019-05-18T00:54:09.468Z,96.74
2019-05-18T00:55:09.413Z,96.84
2019-05-18T00:56:09.401Z,96.89
2019-05-18T00:57:09.385Z,96.89
2019-05-18T00:58:09.382Z,96.89
2019-05-18T00:59:09.394Z,96.89
2019-05-18T01:00:09.373Z,96.69
2019-05-18T01:01:09.346Z,96.69
2019-05-18T01:02:09.335Z,96.79
2019-05-18T01:03:09.323Z,96.69
2019-05-18T01:04:09.309Z,96.69
2019-05-18T01:05:09.493Z,96.89
2019-05-18T01:06:09.306Z,96.63
2019-05-18T01:07:09.276Z,96.69
2019-05-18T01:08:09.272Z,96.58
2019-05-18T01:09:09.257Z,97.09
2019-05-18T01:10:09.263Z,96.69
2019-05-18T01:11:09.283Z,96.89
2019-05-18T01:12:09.240Z,97.09
2019-05-18T01:13:09.209Z,97.30
2019-05-18T01:14:09.199Z,97.61
2019-05-18T01:15:09.196Z,97.40
2019-05-18T01:16:09.180Z,97.30
2019-05-18T01:17:09.215Z,97.81
2019-05-18T01:18:09.168Z,97.81
2019-05-18T01:19:09.153Z,97.40
2019-05-18T01:20:09.134Z,97.45
2019-05-18T01:21:09.123Z,97.55
2019-05-18T01:22:09.112Z,97.75
2019-05-18T01:23:09.135Z,97.55
2019-05-18T01:24:09.105Z,97.55
2019-05-18T01:25:09.085Z,97.86
2019-05-18T01:26:09.073Z,97.34
2019-05-18T01:27:09.056Z,97.86
2019-05-18T01:28:09.044Z,97.96
2019-05-18T01:29:09.083Z,97.65
2019-05-18T01:30:09.036Z,98.16
2019-05-18T01:31:09.021Z,98.16
2019-05-18T01:32:09.006Z,97.86
2019-05-18T01:33:09.043Z,97.86
2019-05-18T01:34:08.981Z,98.07
2019-05-18T01:35:09.008Z,97.60
2019-05-18T01:36:08.968Z,97.14
2019-05-18T01:37:08.948Z,97.55
2019-05-18T01:38:08.936Z,97.39
2019-05-18T01:39:08.927Z,97.65
2019-05-18T01:40:08.912Z,98.16
2019-05-18T01:41:08.957Z,97.96
2019-05-18T01:42:08.902Z,97.96
2019-05-18T01:43:08.881Z,98.16
2019-05-18T01:44:08.870Z,97.86
2019-05-18T01:45:17.003Z,97.55
2019-05-18T01:46:09.883Z,97.24
2019-05-18T01:47:08.840Z,97.86
2019-05-18T01:48:14.207Z,97.86
2019-05-18T01:49:09.816Z,97.86
2019-05-18T01:50:08.805Z,97.65
2019-05-18T01:51:08.797Z,97.45
2019-05-18T01:52:08.820Z,98.07
2019-05-18T01:53:08.770Z,97.96
2019-05-18T01:54:08.772Z,97.96
2019-05-18T01:55:08.751Z,98.27
2019-05-18T01:56:08.739Z,97.75
2019-05-18T01:57:08.727Z,97.75
2019-05-18T01:58:08.752Z,97.81
2019-05-18T01:59:08.708Z,97.86
2019-05-18T02:00:08.710Z,97.71
2019-05-18T02:01:08.686Z,97.96
2019-05-18T02:02:08.672Z,97.61
2019-05-18T02:03:08.661Z,96.89
2019-05-18T02:04:08.691Z,97.71
2019-05-18T02:05:08.650Z,97.50
2019-05-18T02:06:08.641Z,97.20
2019-05-18T02:07:08.627Z,97.20
2019-05-18T02:08:08.607Z,97.40
2019-05-18T02:09:08.599Z,97.09
2019-05-18T02:10:08.623Z,97.09
2019-05-18T02:11:08.574Z,96.99
2019-05-18T02:12:08.579Z,97.30
2019-05-18T02:13:08.558Z,96.69
2019-05-18T02:14:08.540Z,97.30
2019-05-18T02:15:08.533Z,97.09
2019-05-18T02:16:08.570Z,96.89
2019-05-18T02:17:08.512Z,96.79
2019-05-18T02:18:08.519Z,96.99
2019-05-18T02:19:08.495Z,97.20
2019-05-18T02:20:08.474Z,96.89
2019-05-18T02:21:08.466Z,96.89
2019-05-18T02:22:08.483Z,96.79
2019-05-18T02:23:08.440Z,96.69
2019-05-18T02:24:08.469Z,96.99
2019-05-18T02:25:08.422Z,96.69
2019-05-18T02:26:08.407Z,96.99
2019-05-18T02:27:08.410Z,96.69
2019-05-18T02:28:08.441Z,97.20
2019-05-18T02:29:08.376Z,97.40
2019-05-18T02:30:08.412Z,97.09
2019-05-18T02:31:08.355Z,97.40
2019-05-18T02:32:08.342Z,97.61
2019-05-18T02:33:08.331Z,97.61
2019-05-18T02:34:08.473Z,98.02
2019-05-18T02:35:08.317Z,98.02
2019-05-18T02:36:08.327Z,97.91
2019-05-18T02:37:08.297Z,97.91
2019-05-18T02:38:08.279Z,97.91
2019-05-18T02:39:08.270Z,97.91
2019-05-18T02:40:08.414Z,97.81
2019-05-18T02:41:08.246Z,98.43
2019-05-18T02:42:08.251Z,98.12
2019-05-18T02:43:08.226Z,98.33
2019-05-18T02:44:08.214Z,98.43
2019-05-18T02:45:08.203Z,98.53
2019-05-18T02:46:08.234Z,98.53
2019-05-18T02:47:08.181Z,98.53
2019-05-18T02:48:08.181Z,98.53
2019-05-18T02:49:08.155Z,98.07
2019-05-18T02:50:08.149Z,98.28
2019-05-18T02:51:11.413Z,98.49
2019-05-18T02:52:08.246Z,98.07
2019-05-18T02:53:08.115Z,98.07
2019-05-18T02:54:08.120Z,98.49
2019-05-18T02:55:08.093Z,98.38
2019-05-18T02:56:08.080Z,97.87
2019-05-18T02:57:08.076Z,98.28
2019-05-18T02:58:08.092Z,97.77
2019-05-18T02:59:08.046Z,97.87
2019-05-18T03:00:08.053Z,97.87
2019-05-18T03:01:08.025Z,97.56
2019-05-18T03:02:08.019Z,97.97
2019-05-18T03:03:08.005Z,97.87
2019-05-18T03:04:08.041Z,97.77
2019-05-18T03:05:07.987Z,97.87
2019-05-18T03:06:07.976Z,97.77
2019-05-18T03:07:07.963Z,98.28
2019-05-18T03:08:07.949Z,97.87
2019-05-18T03:09:07.944Z,98.33
2019-05-18T03:10:08.125Z,98.74
2019-05-18T03:11:07.917Z,98.38
2019-05-18T03:12:07.922Z,98.38
2019-05-18T03:13:07.892Z,98.90
2019-05-18T03:14:07.962Z,98.49
2019-05-18T03:15:07.881Z,98.24
2019-05-18T03:16:07.901Z,98.38
2019-05-18T03:17:07.882Z,98.18
2019-05-18T03:18:07.863Z,98.44
2019-05-18T03:19:09.180Z,98.03
2019-05-18T03:20:07.825Z,98.18
2019-05-18T03:21:07.813Z,98.07
2019-05-18T03:22:07.837Z,97.97
2019-05-18T03:23:07.783Z,97.77
2019-05-18T03:24:07.781Z,97.77
2019-05-18T03:25:07.764Z,97.72
2019-05-18T03:26:07.749Z,97.72
2019-05-18T03:27:07.739Z,97.87
2019-05-18T03:28:07.764Z,97.77
2019-05-18T03:29:07.783Z,97.46
2019-05-18T03:30:07.727Z,97.87
2019-05-18T03:31:07.868Z,97.72
2019-05-18T03:32:07.685Z,98.18
2019-05-18T03:33:07.677Z,98.07
2019-05-18T03:34:07.726Z,97.56
2019-05-18T03:35:07.660Z,97.36
2019-05-18T03:36:07.655Z,97.46
2019-05-18T03:37:07.627Z,97.66
2019-05-18T03:38:07.622Z,97.87
2019-05-18T03:39:07.607Z,98.07
2019-05-18T03:40:07.787Z,98.13
2019-05-18T03:41:07.585Z,98.07
2019-05-18T03:42:07.601Z,97.66
2019-05-18T03:43:07.562Z,97.77
2019-05-18T03:44:07.551Z,97.77
2019-05-18T03:45:07.547Z,97.87
2019-05-18T03:46:07.563Z,98.07
2019-05-18T03:47:07.516Z,97.87
2019-05-18T03:48:07.524Z,97.82
2019-05-18T03:49:23.654Z,97.62
2019-05-18T03:50:08.484Z,98.13
2019-05-18T03:51:07.474Z,98.24
2019-05-18T03:52:07.491Z,98.13
2019-05-18T03:53:07.453Z,97.72
2019-05-18T03:54:07.450Z,98.13
2019-05-18T03:55:07.431Z,98.33
2019-05-18T03:56:07.420Z,98.13
2019-05-18T03:57:07.409Z,98.13
2019-05-18T03:58:07.449Z,97.92
2019-05-18T03:59:07.391Z,97.82
2019-05-18T04:00:07.397Z,97.62
2019-05-18T04:01:07.363Z,97.72
2019-05-18T04:02:07.352Z,97.72
2019-05-18T04:03:07.343Z,97.67
2019-05-18T04:04:07.384Z,97.98
2019-05-18T04:05:07.339Z,98.24
2019-05-18T04:06:07.319Z,98.24
2019-05-18T04:07:07.300Z,98.03
2019-05-18T04:08:07.289Z,97.98
2019-05-18T04:09:07.293Z,97.78
2019-05-18T04:10:07.297Z,97.98
2019-05-18T04:11:07.256Z,98.19
2019-05-18T04:12:07.264Z,97.88
2019-05-18T04:13:07.233Z,97.88
2019-05-18T04:14:08.323Z,98.29
2019-05-18T04:15:07.216Z,97.78
2019-05-18T04:16:07.236Z,98.29
2019-05-18T04:17:07.193Z,97.88
2019-05-18T04:18:07.197Z,98.29
2019-05-18T04:19:07.166Z,97.88
2019-05-18T04:20:07.159Z,98.19
2019-05-18T04:21:07.148Z,98.19
2019-05-18T04:22:07.181Z,97.67
2019-05-18T04:23:07.124Z,97.98
2019-05-18T04:24:07.132Z,97.98
2019-05-18T04:25:07.131Z,97.94
2019-05-18T04:26:07.098Z,97.63
2019-05-18T04:27:07.078Z,98.29
2019-05-18T04:28:07.095Z,97.74
2019-05-18T04:29:07.056Z,97.63
2019-05-18T04:30:07.061Z,97.74
2019-05-18T04:31:07.053Z,97.63
2019-05-18T04:32:07.034Z,97.22
2019-05-18T04:33:07.015Z,97.63
2019-05-18T04:34:07.116Z,97.22
2019-05-18T04:35:06.991Z,97.74
2019-05-18T04:36:06.999Z,97.83
2019-05-18T04:37:06.974Z,97.99
2019-05-18T04:38:06.965Z,97.49
2019-05-18T04:39:06.949Z,97.28
2019-05-18T04:40:06.971Z,97.08
2019-05-18T04:41:06.930Z,97.28
2019-05-18T04:42:06.934Z,96.97
2019-05-18T04:43:06.902Z,96.97
2019-05-18T04:44:06.892Z,96.87
2019-05-18T04:45:06.903Z,96.67
2019-05-18T04:46:06.911Z,96.26
2019-05-18T04:47:06.865Z,96.67
2019-05-18T04:48:06.861Z,96.67
2019-05-18T04:49:06.838Z,96.46
2019-05-18T04:50:06.827Z,96.31
2019-05-18T04:51:06.818Z,96.62
2019-05-18T04:52:06.849Z,96.72
2019-05-18T04:53:06.798Z,96.31
2019-05-18T04:54:06.802Z,96.01
2019-05-18T04:55:06.785Z,96.42
2019-05-18T04:56:06.761Z,95.90
2019-05-18T04:57:06.751Z,95.76
2019-05-18T04:58:06.771Z,95.29
2019-05-18T04:59:06.733Z,95.45
2019-05-18T05:00:06.719Z,95.15
2019-05-18T05:01:06.713Z,95.35
2019-05-18T05:02:06.736Z,95.04
2019-05-18T05:03:06.685Z,94.94
2019-05-18T05:04:06.713Z,94.74
2019-05-18T05:05:06.663Z,94.90
2019-05-18T05:06:06.654Z,94.70
2019-05-18T05:07:06.642Z,94.70
2019-05-18T05:08:06.644Z,94.59
2019-05-18T05:09:06.625Z,94.59
2019-05-18T05:10:06.648Z,94.29
2019-05-18T05:11:06.596Z,93.67
2019-05-18T05:12:06.590Z,94.29
2019-05-18T05:13:06.578Z,93.77
2019-05-18T05:14:06.570Z,93.77
2019-05-18T05:15:06.557Z,93.57
2019-05-18T05:16:06.575Z,93.67
2019-05-18T05:17:06.534Z,93.52
2019-05-18T05:18:06.522Z,93.84
2019-05-18T05:19:08.664Z,93.84
2019-05-18T05:20:18.773Z,93.43
2019-05-18T05:21:07.529Z,93.93
2019-05-18T05:22:06.478Z,93.93
2019-05-18T05:23:06.471Z,93.73
2019-05-18T05:24:06.456Z,93.93
2019-05-18T05:25:06.448Z,93.93
2019-05-18T05:26:06.448Z,94.14
2019-05-18T05:27:06.476Z,94.34
2019-05-18T05:28:06.414Z,94.24
2019-05-18T05:29:06.407Z,93.84
2019-05-18T05:30:06.393Z,93.12
2019-05-18T05:31:06.384Z,93.43
2019-05-18T05:32:06.393Z,93.43
2019-05-18T05:33:06.405Z,93.32
2019-05-18T05:34:06.351Z,93.52
2019-05-18T05:35:06.342Z,93.12
2019-05-18T05:36:06.334Z,93.32
2019-05-18T05:37:06.322Z,93.52
2019-05-18T05:38:06.312Z,93.48
2019-05-18T05:39:06.357Z,92.77
2019-05-18T05:40:06.310Z,92.87
2019-05-18T05:41:06.276Z,91.96
2019-05-18T05:42:06.263Z,92.36
2019-05-18T05:43:06.252Z,92.36
2019-05-18T05:44:06.244Z,92.87
2019-05-18T05:45:06.306Z,92.36
2019-05-18T05:46:06.219Z,92.57
2019-05-18T05:47:06.210Z,92.36
2019-05-18T05:48:06.201Z,92.32
2019-05-18T05:49:06.189Z,92.32
2019-05-18T05:50:06.182Z,92.32
2019-05-18T05:51:06.199Z,92.63
2019-05-18T05:52:06.169Z,92.42
2019-05-18T05:53:06.144Z,92.22
2019-05-18T05:54:06.136Z,92.63
2019-05-18T05:55:06.142Z,91.71
2019-05-18T05:56:06.111Z,92.58
2019-05-18T05:57:06.135Z,91.77
2019-05-18T05:58:06.105Z,92.27
2019-05-18T05:59:06.081Z,91.77
2019-05-18T06:00:06.070Z,91.87
2019-05-18T06:01:06.059Z,91.42
2019-05-18T06:02:06.047Z,90.60
2019-05-18T06:03:06.090Z,90.60
2019-05-18T06:04:06.039Z,90.81
2019-05-18T06:05:06.012Z,90.16
2019-05-18T06:06:05.998Z,90.16
2019-05-18T06:07:05.988Z,90.05
2019-05-18T06:08:06.010Z,89.91
2019-05-18T06:09:06.016Z,89.81
2019-05-18T06:10:05.971Z,89.50
2019-05-18T06:11:05.960Z,88.69
2019-05-18T06:12:05.935Z,89.20
2019-05-18T06:13:05.923Z,89.09
2019-05-18T06:14:05.916Z,89.00
2019-05-18T06:15:05.951Z,88.75
2019-05-18T06:16:05.898Z,88.75
2019-05-18T06:17:08.421Z,88.75
2019-05-18T06:18:05.866Z,88.65
2019-05-18T06:19:05.859Z,88.85
2019-05-18T06:20:05.846Z,87.69
2019-05-18T06:21:05.866Z,87.93
2019-05-18T06:22:05.825Z,87.18
2019-05-18T06:23:05.845Z,86.82
2019-05-18T06:24:05.862Z,86.98
2019-05-18T06:25:05.843Z,86.27
2019-05-18T06:26:05.801Z,86.77
2019-05-18T06:27:05.824Z,85.86
2019-05-18T06:28:05.760Z,86.13
2019-05-18T06:29:05.769Z,85.52
2019-05-18T06:30:05.729Z,86.13
2019-05-18T06:31:05.718Z,86.02
2019-05-18T06:32:05.718Z,85.41
2019-05-18T06:33:05.749Z,85.52
2019-05-18T06:34:05.716Z,85.31
2019-05-18T06:35:05.784Z,85.92
2019-05-18T06:36:05.717Z,86.13
2019-05-18T06:37:05.661Z,84.97
2019-05-18T06:38:05.654Z,84.66
2019-05-18T06:39:05.690Z,84.56
2019-05-18T06:40:05.627Z,83.54
2019-05-18T06:41:05.639Z,83.65
2019-05-18T06:42:05.602Z,83.54
2019-05-18T06:43:05.627Z,83.85
2019-05-18T06:44:05.592Z,83.04
2019-05-18T06:45:05.630Z,83.34
2019-05-18T06:46:05.562Z,83.71
2019-05-18T06:47:05.570Z,83.71
2019-05-18T06:48:05.548Z,84.12
2019-05-18T06:49:05.525Z,84.52
2019-05-18T06:50:05.532Z,84.48
2019-05-18T06:51:07.485Z,85.19
2019-05-18T06:52:05.503Z,84.58
2019-05-18T06:53:05.482Z,84.08
2019-05-18T06:54:05.472Z,84.58
2019-05-18T06:55:05.479Z,83.73
2019-05-18T06:56:05.447Z,83.53
2019-05-18T06:57:05.571Z,83.12
2019-05-18T06:58:05.502Z,82.52
2019-05-18T06:59:05.431Z,82.01
2019-05-18T07:00:05.460Z,82.31
2019-05-18T07:01:05.400Z,82.56
2019-05-18T07:02:05.443Z,82.31
2019-05-18T07:03:05.441Z,83.06
2019-05-18T07:04:05.383Z,84.01
2019-05-18T07:05:05.362Z,84.28
2019-05-18T07:06:05.342Z,84.48
2019-05-18T07:07:05.341Z,85.05
2019-05-18T07:08:05.315Z,83.73
2019-05-18T07:09:05.357Z,83.03
2019-05-18T07:10:05.309Z,83.90
2019-05-18T07:11:05.288Z,84.00
2019-05-18T07:12:05.270Z,84.70
2019-05-18T07:13:05.265Z,84.50
2019-05-18T07:14:05.262Z,84.91
2019-05-18T07:15:05.296Z,84.50
2019-05-18T07:16:05.234Z,84.70
2019-05-18T07:17:05.230Z,84.56
2019-05-18T07:18:05.205Z,83.55
2019-05-18T07:19:05.210Z,83.51
2019-05-18T07:20:05.199Z,83.41
2019-05-18T07:21:05.234Z,83.21
2019-05-18T07:22:05.203Z,83.17
2019-05-18T07:23:05.163Z,83.88
2019-05-18T07:24:05.172Z,84.28
2019-05-18T07:25:05.205Z,83.03
2019-05-18T07:26:05.120Z,82.22
2019-05-18T07:27:05.168Z,82.08
2019-05-18T07:28:05.348Z,81.57
2019-05-18T07:29:05.885Z,82.12
2019-05-18T07:30:05.099Z,82.08
2019-05-18T07:31:05.084Z,81.82
2019-05-18T07:32:05.087Z,82.18
2019-05-18T07:33:05.134Z,81.13
2019-05-18T07:34:05.218Z,79.41
2019-05-18T07:35:05.040Z,79.32
2019-05-18T07:36:05.069Z,79.08
2019-05-18T07:37:05.074Z,77.39
2019-05-18T07:38:05.036Z,78.30
2019-05-18T07:39:05.160Z,78.00
2019-05-18T07:40:04.991Z,78.71
2019-05-18T07:41:05.049Z,78.20
2019-05-18T07:42:05.048Z,78.17
2019-05-18T07:43:05.022Z,77.06
2019-05-18T07:44:04.919Z,78.77
2019-05-18T07:45:05.083Z,78.97
2019-05-18T07:46:04.912Z,77.46
2019-05-18T07:47:04.903Z,76.86
2019-05-18T07:48:04.878Z,76.82
2019-05-18T07:49:04.865Z,77.83
2019-05-18T07:50:04.881Z,78.23
2019-05-18T07:51:04.895Z,78.57
2019-05-18T07:52:04.840Z,78.27
2019-05-18T07:53:04.825Z,78.37
2019-05-18T07:54:04.820Z,78.37
2019-05-18T07:55:04.916Z,79.08
2019-05-18T07:56:04.828Z,78.67
2019-05-18T07:57:04.946Z,78.77
2019-05-18T07:58:04.783Z,78.10
2019-05-18T07:59:04.756Z,78.61
2019-05-18T08:00:04.749Z,79.11
2019-05-18T08:01:04.838Z,78.91
2019-05-18T08:02:04.777Z,78.61
2019-05-18T08:03:04.804Z,78.20
2019-05-18T08:04:04.711Z,78.71
2019-05-18T08:05:04.719Z,78.50
2019-05-18T08:06:04.680Z,79.41
2019-05-18T08:07:04.688Z,77.60
2019-05-18T08:08:04.670Z,77.90
2019-05-18T08:09:04.691Z,78.67
2019-05-18T08:10:04.641Z,80.02
2019-05-18T08:11:04.629Z,78.10
2019-05-18T08:12:04.612Z,76.55
2019-05-18T08:13:04.602Z,76.15
2019-05-18T08:14:04.598Z,77.36
2019-05-18T08:15:04.612Z,77.32
2019-05-18T08:16:04.571Z,76.51
2019-05-18T08:17:04.556Z,78.33
2019-05-18T08:18:04.544Z,77.73
2019-05-18T08:19:04.536Z,77.62
2019-05-18T08:20:04.523Z,77.08
2019-05-18T08:21:04.624Z,75.98
2019-05-18T08:22:04.512Z,77.59
2019-05-18T08:23:04.519Z,76.88
2019-05-18T08:24:04.527Z,77.19
2019-05-18T08:25:04.475Z,77.59
2019-05-18T08:26:04.466Z,76.78
2019-05-18T08:27:04.479Z,75.98
2019-05-18T08:28:04.439Z,75.54
2019-05-18T08:29:04.423Z,76.95
2019-05-18T08:30:04.421Z,75.60
2019-05-18T08:31:04.430Z,75.70
2019-05-18T08:32:04.391Z,75.36
2019-05-18T08:33:04.440Z,76.37
2019-05-18T08:34:04.369Z,74.35
2019-05-18T08:35:04.365Z,73.75
2019-05-18T08:36:04.371Z,74.12
2019-05-18T08:37:04.339Z,74.42
2019-05-18T08:38:04.330Z,74.89
2019-05-18T08:39:04.376Z,73.58
2019-05-18T08:40:04.307Z,73.85
2019-05-18T08:41:04.299Z,73.44
2019-05-18T08:42:04.405Z,72.64
2019-05-18T08:43:04.277Z,71.50
2019-05-18T08:44:04.264Z,71.20
2019-05-18T08:45:04.306Z,71.20
2019-05-18T08:46:04.241Z,72.50
2019-05-18T08:47:04.229Z,72.17
2019-05-18T08:48:04.256Z,69.45
2019-05-18T08:49:04.212Z,69.96
2019-05-18T08:50:04.204Z,70.66
2019-05-18T08:51:04.238Z,68.45
2019-05-18T08:52:08.204Z,66.44
2019-05-18T08:53:04.186Z,66.94
2019-05-18T08:54:04.163Z,67.91
2019-05-18T08:55:04.144Z,68.32
2019-05-18T08:56:04.137Z,66.34
2019-05-18T08:57:04.158Z,67.85
2019-05-18T08:58:04.132Z,67.85
2019-05-18T08:59:04.096Z,67.88
2019-05-18T09:00:04.085Z,68.31
2019-05-18T09:01:04.096Z,68.28
2019-05-18T09:02:04.068Z,69.49
2019-05-18T09:03:04.096Z,69.49
2019-05-18T09:04:04.059Z,68.65
2019-05-18T09:05:04.968Z,67.44
2019-05-18T09:06:04.020Z,67.74
2019-05-18T09:07:04.047Z,67.78
2019-05-18T09:08:04.176Z,67.58
2019-05-18T09:09:04.027Z,69.29
2019-05-18T09:10:03.977Z,68.98
2019-05-18T09:11:03.997Z,69.85
2019-05-18T09:12:04.011Z,68.68
2019-05-18T09:13:03.944Z,68.72
2019-05-18T09:14:03.930Z,67.51
2019-05-18T09:15:03.999Z,65.73
2019-05-18T09:16:03.908Z,67.61
2019-05-18T09:17:03.895Z,66.17
2019-05-18T09:18:04.998Z,66.88
2019-05-18T09:19:03.875Z,65.27
2019-05-18T09:20:03.879Z,65.37
2019-05-18T09:21:03.896Z,63.67
2019-05-18T09:22:03.859Z,64.17
2019-05-18T09:23:03.833Z,64.14
2019-05-18T09:24:03.830Z,63.73
2019-05-18T09:25:03.865Z,64.81
2019-05-18T09:26:03.801Z,64.51
2019-05-18T09:27:03.849Z,65.21
2019-05-18T09:28:03.787Z,64.61
2019-05-18T09:29:03.801Z,63.40
2019-05-18T09:30:03.827Z,63.31
2019-05-18T09:31:03.757Z,63.90
2019-05-18T09:32:04.150Z,64.37
2019-05-18T09:33:03.766Z,64.97
2019-05-18T09:34:03.737Z,64.77
2019-05-18T09:35:03.739Z,65.17
2019-05-18T09:36:03.918Z,64.30
2019-05-18T09:37:03.682Z,62.69
2019-05-18T09:38:03.671Z,64.50
2019-05-18T09:39:03.707Z,65.77
2019-05-18T09:40:03.802Z,65.07
2019-05-18T09:41:03.678Z,65.50
2019-05-18T09:42:03.650Z,66.00
2019-05-18T09:43:03.637Z,63.06
2019-05-18T09:44:03.635Z,63.67
2019-05-18T09:45:03.631Z,64.20
2019-05-18T09:46:03.802Z,66.11
2019-05-18T09:47:03.679Z,67.11
2019-05-18T09:48:03.631Z,67.88
2019-05-18T09:49:03.560Z,66.98
2019-05-18T09:50:03.554Z,66.44
2019-05-18T09:51:03.588Z,64.54
2019-05-18T09:52:03.588Z,65.74
2019-05-18T09:53:03.622Z,65.04
2019-05-18T09:54:03.507Z,64.37
2019-05-18T09:55:03.497Z,65.37
2019-05-18T09:56:03.510Z,66.75
2019-05-18T09:57:03.505Z,65.04
2019-05-18T09:58:03.489Z,65.04
2019-05-18T09:59:03.454Z,63.93
2019-05-18T10:00:03.437Z,64.81
2019-05-18T10:01:03.427Z,65.41
2019-05-18T10:02:03.438Z,66.41
2019-05-18T10:03:03.487Z,65.98
2019-05-18T10:04:03.403Z,64.31
2019-05-18T10:05:03.525Z,65.41
2019-05-18T10:06:03.483Z,64.91
2019-05-18T10:07:03.434Z,65.71
2019-05-18T10:08:03.393Z,67.11
2019-05-18T10:09:03.392Z,65.51
2019-05-18T10:10:03.368Z,65.91
2019-05-18T10:11:03.330Z,66.55
2019-05-18T10:12:03.313Z,66.14
2019-05-18T10:13:03.310Z,66.44
2019-05-18T10:14:03.313Z,67.52
2019-05-18T10:15:03.375Z,67.25
2019-05-18T10:16:03.276Z,67.22
2019-05-18T10:17:03.261Z,66.91
2019-05-18T10:18:03.257Z,66.82
2019-05-18T10:19:03.251Z,67.72
2019-05-18T10:20:03.273Z,67.95
2019-05-18T10:21:03.297Z,68.32
2019-05-18T10:22:03.201Z,67.72
2019-05-18T10:23:12.428Z,66.61
2019-05-18T10:24:04.188Z,66.91
2019-05-18T10:25:03.173Z,66.95
2019-05-18T10:26:03.165Z,67.75
2019-05-18T10:27:03.183Z,67.45
2019-05-18T10:28:03.142Z,67.75
2019-05-18T10:29:03.145Z,67.14
2019-05-18T10:30:03.120Z,66.75
2019-05-18T10:31:03.117Z,66.95
2019-05-18T10:32:03.099Z,67.75
2019-05-18T10:33:03.125Z,67.32
2019-05-18T10:34:03.074Z,66.91
2019-05-18T10:35:03.083Z,66.82
2019-05-18T10:36:03.051Z,66.41
2019-05-18T10:37:03.043Z,66.71
2019-05-18T10:38:03.055Z,66.21
2019-05-18T10:39:03.193Z,66.78
2019-05-18T10:40:03.012Z,65.48
2019-05-18T10:41:03.010Z,66.48
2019-05-18T10:42:02.982Z,65.78
2019-05-18T10:43:02.994Z,65.65
2019-05-18T10:44:03.187Z,65.35
2019-05-18T10:45:02.988Z,66.25
2019-05-18T10:46:02.948Z,67.45
2019-05-18T10:47:02.937Z,67.76
2019-05-18T10:48:03.023Z,66.99
2019-05-18T10:49:02.915Z,65.58
2019-05-18T10:50:02.920Z,66.31
2019-05-18T10:51:05.510Z,67.22
2019-05-18T10:52:02.886Z,66.52
2019-05-18T10:53:03.058Z,65.91
2019-05-18T10:54:02.877Z,66.31
2019-05-18T10:55:02.847Z,67.42
2019-05-18T10:56:02.977Z,67.35
2019-05-18T10:57:02.858Z,66.64
2019-05-18T10:58:02.814Z,66.35
2019-05-18T10:59:02.835Z,66.64
2019-05-18T11:00:02.830Z,67.02
2019-05-18T11:01:02.801Z,67.65
2019-05-18T11:02:02.774Z,67.75
2019-05-18T11:03:02.865Z,68.25
2019-05-18T11:04:02.769Z,67.85
2019-05-18T11:05:02.736Z,68.76
2019-05-18T11:06:02.727Z,69.96
2019-05-18T11:07:02.719Z,69.56
2019-05-18T11:08:02.723Z,68.15
2019-05-18T11:09:02.752Z,69.85
2019-05-18T11:10:02.707Z,69.56
2019-05-18T11:11:02.741Z,69.46
2019-05-18T11:12:02.664Z,69.82
2019-05-18T11:13:02.653Z,67.92
2019-05-18T11:14:02.668Z,69.35
2019-05-18T11:15:02.665Z,70.26
2019-05-18T11:16:02.633Z,70.43
2019-05-18T11:17:02.611Z,69.92
2019-05-18T11:18:02.618Z,70.03
2019-05-18T11:19:02.586Z,69.62
2019-05-18T11:20:02.594Z,69.73
2019-05-18T11:21:02.589Z,69.12
2019-05-18T11:22:02.555Z,69.42
2019-05-18T11:23:02.539Z,70.12
2019-05-18T11:24:02.523Z,69.73
2019-05-18T11:25:02.512Z,68.52
2019-05-18T11:26:02.517Z,68.55
2019-05-18T11:27:02.707Z,67.85
2019-05-18T11:28:02.503Z,69.02
2019-05-18T11:29:02.493Z,69.76
2019-05-18T11:30:02.770Z,69.85
2019-05-18T11:31:02.451Z,70.06
2019-05-18T11:32:02.459Z,70.03
2019-05-18T11:33:02.475Z,69.76
2019-05-18T11:34:02.413Z,67.55
2019-05-18T11:35:02.407Z,66.98
2019-05-18T11:36:02.417Z,67.38
2019-05-18T11:37:03.176Z,67.08
2019-05-18T11:38:02.387Z,67.08
2019-05-18T11:39:02.397Z,67.58
2019-05-18T11:40:02.368Z,67.68
2019-05-18T11:41:02.335Z,68.18
2019-05-18T11:42:02.333Z,67.88
2019-05-18T11:43:02.373Z,68.21
2019-05-18T11:44:02.307Z,68.41
2019-05-18T11:45:02.336Z,68.21
2019-05-18T11:46:02.382Z,69.32
2019-05-18T11:47:02.275Z,70.43
2019-05-18T11:48:02.275Z,69.82
2019-05-18T11:49:02.296Z,68.41
2019-05-18T11:50:02.248Z,69.85
2019-05-18T11:51:02.397Z,69.65
2019-05-18T11:52:02.222Z,68.15
2019-05-18T11:53:02.306Z,69.76
2019-05-18T11:54:02.250Z,69.65
2019-05-18T11:55:02.370Z,68.55
2019-05-18T11:56:02.179Z,69.25
2019-05-18T11:57:02.225Z,69.99
2019-05-18T11:58:02.159Z,71.20
2019-05-18T11:59:02.153Z,73.51
2019-05-18T12:00:02.269Z,73.35
2019-05-18T12:01:02.119Z,72.34
2019-05-18T12:02:02.177Z,74.15
2019-05-18T12:03:02.161Z,74.62
2019-05-18T12:04:02.103Z,74.82
2019-05-18T12:05:02.075Z,72.81
2019-05-18T12:06:02.081Z,72.20
2019-05-18T12:07:02.070Z,73.07
2019-05-18T12:08:02.037Z,72.50
2019-05-18T12:09:02.082Z,72.97
2019-05-18T12:10:02.024Z,70.66
2019-05-18T12:11:02.005Z,72.33
2019-05-18T12:12:02.007Z,71.33
2019-05-18T12:13:01.985Z,71.83
2019-05-18T12:14:02.017Z,72.94
2019-05-18T12:15:02.125Z,72.53
2019-05-18T12:16:01.950Z,70.63
2019-05-18T12:17:01.957Z,67.85
2019-05-18T12:18:01.925Z,67.94
2019-05-18T12:19:01.916Z,68.72
2019-05-18T12:20:01.905Z,68.55
2019-05-18T12:21:01.928Z,69.72
2019-05-18T12:22:01.894Z,68.72
2019-05-18T12:23:01.883Z,70.23
2019-05-18T12:24:14.618Z,70.32
2019-05-18T12:25:02.846Z,70.70
2019-05-18T12:26:01.837Z,71.43
2019-05-18T12:27:01.873Z,69.32
2019-05-18T12:28:02.084Z,70.59
2019-05-18T12:29:01.824Z,69.99
2019-05-18T12:30:01.795Z,69.69
2019-05-18T12:31:02.232Z,71.00
2019-05-18T12:32:01.774Z,69.66
2019-05-18T12:33:01.809Z,69.26
2019-05-18T12:34:01.748Z,68.79
2019-05-18T12:35:01.760Z,67.88
2019-05-18T12:36:01.727Z,67.28
2019-05-18T12:37:01.727Z,63.76
2019-05-18T12:38:01.809Z,64.94
2019-05-18T12:39:01.777Z,65.14
2019-05-18T12:40:01.683Z,66.64
2019-05-18T12:41:01.691Z,66.95
2019-05-18T12:42:01.665Z,61.93
2019-05-18T12:43:01.657Z,64.43
2019-05-18T12:44:01.636Z,62.56
2019-05-18T12:45:01.664Z,61.35
2019-05-18T12:46:01.616Z,61.35
2019-05-18T12:47:01.636Z,60.35
2019-05-18T12:48:01.597Z,62.13
2019-05-18T12:49:01.620Z,65.64
2019-05-18T12:50:01.571Z,66.71
2019-05-18T12:51:01.607Z,66.88
2019-05-18T12:52:01.550Z,65.35